createdAt,value
2023-09-17T00:01:51.028Z,100475.13
2023-09-17T00:04:25.529Z,100482.47
2023-09-17T00:06:58.545Z,100476.34
2023-09-17T00:09:31.521Z,100471.03
2023-09-17T00:12:04.866Z,100470.38
2023-09-17T00:14:37.990Z,100474.16
2023-09-17T00:17:11.093Z,100475.22
2023-09-17T00:19:45.622Z,100471.78
2023-09-17T00:22:18.798Z,100473.59
2023-09-17T00:24:51.883Z,100474.59
2023-09-17T00:27:24.908Z,100470.16
2023-09-17T00:29:58.147Z,100468.44
2023-09-17T00:32:31.110Z,100466.69
2023-09-17T00:35:06.313Z,100465.84
2023-09-17T00:37:39.363Z,100457.88
2023-09-17T00:40:13.519Z,100458.06
2023-09-17T00:42:46.514Z,100455.47
2023-09-17T00:45:19.713Z,100453.84
2023-09-17T00:47:52.913Z,100454.91
2023-09-17T00:50:27.736Z,100455.16
2023-09-17T00:53:01.295Z,100456.22
2023-09-17T00:55:34.400Z,100448.34
2023-09-17T00:58:09.036Z,100451.78
2023-09-17T01:00:42.036Z,100453.72
2023-09-17T01:03:15.146Z,100451.03
2023-09-17T01:05:50.194Z,100449.19
2023-09-17T01:08:24.299Z,100443.03
2023-09-17T01:10:57.540Z,100443.03
2023-09-17T01:13:30.689Z,100448.53
2023-09-17T01:16:05.196Z,100453.09
2023-09-17T01:18:38.505Z,100454.88
2023-09-17T01:21:19.405Z,100458.47
2023-09-17T01:24:06.844Z,100445.00
2023-09-17T01:26:43.499Z,100453.19
2023-09-17T01:29:24.014Z,100451.44
2023-09-17T01:31:57.720Z,100449.84
2023-09-17T01:34:32.079Z,100453.50
2023-09-17T01:37:08.901Z,100447.25
2023-09-17T01:39:47.678Z,100451.75
2023-09-17T01:42:21.852Z,100435.78
2023-09-17T01:44:57.675Z,100440.44
2023-09-17T01:47:34.345Z,100431.69
2023-09-17T01:50:09.345Z,100439.13
2023-09-17T01:52:46.254Z,100441.81
2023-09-17T01:55:19.297Z,100436.66
2023-09-17T01:57:54.984Z,100436.84
2023-09-17T02:00:29.631Z,100429.94
2023-09-17T02:03:04.028Z,100433.78
2023-09-17T02:05:37.264Z,100441.09
2023-09-17T02:08:10.305Z,100437.66
2023-09-17T02:10:43.349Z,100435.16
2023-09-17T02:13:16.414Z,100439.03
2023-09-17T02:15:51.393Z,100436.44
2023-09-17T02:18:24.435Z,100432.13
2023-09-17T02:20:57.946Z,100426.84
2023-09-17T02:23:31.083Z,100431.38
2023-09-17T02:26:04.013Z,100428.69
2023-09-17T02:28:37.012Z,100437.72
2023-09-17T02:31:12.015Z,100432.34
2023-09-17T02:33:44.949Z,100431.47
2023-09-17T02:36:18.036Z,100430.56
2023-09-17T02:38:51.306Z,100427.13
2023-09-17T02:41:24.564Z,100430.00
2023-09-17T02:43:58.483Z,100429.34
2023-09-17T02:46:33.041Z,100428.78
2023-09-17T02:49:07.045Z,100428.00
2023-09-17T02:51:40.038Z,100431.78
2023-09-17T02:54:13.313Z,100428.31
2023-09-17T02:56:46.222Z,100432.00
2023-09-17T02:59:19.157Z,100428.50
2023-09-17T03:01:53.868Z,100426.00
2023-09-17T03:04:27.828Z,100431.72
2023-09-17T03:07:01.094Z,100438.16
2023-09-17T03:09:35.179Z,100427.56
2023-09-17T03:12:08.661Z,100434.50
2023-09-17T03:14:41.803Z,100432.78
2023-09-17T03:17:17.746Z,100422.09
2023-09-17T03:19:53.004Z,100414.88
2023-09-17T03:22:25.989Z,100419.50
2023-09-17T03:25:04.456Z,100417.78
2023-09-17T03:27:40.046Z,100414.22
2023-09-17T03:30:14.087Z,100407.09
2023-09-17T03:33:01.666Z,100406.16
2023-09-17T03:35:41.947Z,100404.50
2023-09-17T03:38:15.009Z,100411.09
2023-09-17T03:40:48.283Z,100403.19
2023-09-17T03:43:21.916Z,100405.13
2023-09-17T03:45:54.960Z,100405.34
2023-09-17T03:48:29.752Z,100397.63
2023-09-17T03:51:05.609Z,100401.84
2023-09-17T03:53:38.810Z,100406.56
2023-09-17T03:56:13.311Z,100409.47
2023-09-17T03:58:46.583Z,100413.13
2023-09-17T04:01:21.638Z,100406.97
2023-09-17T04:03:56.238Z,100401.59
2023-09-17T04:06:30.510Z,100402.56
2023-09-17T04:09:03.445Z,100401.88
2023-09-17T04:11:36.781Z,100402.84
2023-09-17T04:14:10.828Z,100403.06
2023-09-17T04:16:44.017Z,100396.03
2023-09-17T04:19:18.475Z,100397.84
2023-09-17T04:21:51.453Z,100403.25
2023-09-17T04:24:24.772Z,100400.56
2023-09-17T04:26:57.742Z,100397.97
2023-09-17T04:29:31.152Z,100406.03
2023-09-17T04:32:04.920Z,100401.59
2023-09-17T04:34:39.465Z,100410.66
2023-09-17T04:37:12.551Z,100403.44
2023-09-17T04:39:46.120Z,100400.66
2023-09-17T04:42:19.130Z,100404.19
2023-09-17T04:44:52.242Z,100409.47
2023-09-17T04:47:25.783Z,100413.91
2023-09-17T04:50:00.923Z,100418.19
2023-09-17T04:52:33.990Z,100422.53
2023-09-17T04:55:07.919Z,100423.19
2023-09-17T04:57:41.459Z,100429.47
2023-09-17T05:00:15.619Z,100431.06
2023-09-17T05:02:50.582Z,100437.25
2023-09-17T05:05:26.752Z,100437.16
2023-09-17T05:08:00.118Z,100442.31
2023-09-17T05:10:34.201Z,100443.84
2023-09-17T05:13:07.704Z,100432.91
2023-09-17T05:15:41.223Z,100443.38
2023-09-17T05:18:14.289Z,100440.47
2023-09-17T05:20:56.219Z,100438.56
2023-09-17T05:23:30.509Z,100436.50
2023-09-17T05:26:06.977Z,100435.38
2023-09-17T05:28:40.120Z,100435.63
2023-09-17T05:31:13.574Z,100432.34
2023-09-17T05:33:47.481Z,100437.97
2023-09-17T05:36:22.405Z,100440.75
2023-09-17T05:38:55.337Z,100441.56
2023-09-17T05:41:28.347Z,100440.44
2023-09-17T05:44:04.749Z,100434.00
2023-09-17T05:46:38.212Z,100436.50
2023-09-17T05:49:11.292Z,100446.31
2023-09-17T05:51:45.942Z,100440.81
2023-09-17T05:54:19.021Z,100444.53
2023-09-17T05:56:52.184Z,100439.13
2023-09-17T05:59:25.232Z,100443.44
2023-09-17T06:01:59.325Z,100455.28
2023-09-17T06:04:32.341Z,100450.06
2023-09-17T06:07:06.851Z,100443.91
2023-09-17T06:09:39.796Z,100442.22
2023-09-17T06:12:13.443Z,100442.19
2023-09-17T06:14:46.454Z,100446.47
2023-09-17T06:17:20.121Z,100451.59
2023-09-17T06:19:53.143Z,100443.19
2023-09-17T06:22:27.560Z,100449.03
2023-09-17T06:25:00.740Z,100450.44
2023-09-17T06:27:36.171Z,100451.84
2023-09-17T06:30:10.666Z,100443.41
2023-09-17T06:32:43.994Z,100438.63
2023-09-17T06:35:17.258Z,100440.94
2023-09-17T06:37:52.230Z,100433.41
2023-09-17T06:40:25.249Z,100431.22
2023-09-17T06:42:58.227Z,100439.78
2023-09-17T06:45:32.066Z,100438.69
2023-09-17T06:48:05.299Z,100446.53
2023-09-17T06:50:38.446Z,100433.91
2023-09-17T06:53:12.799Z,100434.56
2023-09-17T06:55:46.133Z,100431.28
2023-09-17T06:58:19.233Z,100443.28
2023-09-17T07:00:52.256Z,100440.25
2023-09-17T07:03:25.297Z,100447.22
2023-09-17T07:05:58.391Z,100444.16
2023-09-17T07:08:32.914Z,100455.50
2023-09-17T07:11:06.160Z,100447.69
2023-09-17T07:13:39.870Z,100441.88
2023-09-17T07:16:14.683Z,100451.97
2023-09-17T07:18:47.907Z,100443.75
2023-09-17T07:21:21.230Z,100452.63
2023-09-17T07:23:55.858Z,100458.84
2023-09-17T07:26:29.740Z,100461.25
2023-09-17T07:29:04.849Z,100466.53
2023-09-17T07:31:37.983Z,100470.47
2023-09-17T07:34:11.312Z,100471.25
2023-09-17T07:36:44.281Z,100474.41
2023-09-17T07:39:18.786Z,100471.06
2023-09-17T07:41:51.773Z,100460.34
2023-09-17T07:44:26.121Z,100471.28
2023-09-17T07:46:59.147Z,100463.97
2023-09-17T07:49:32.109Z,100451.66
2023-09-17T07:52:05.621Z,100454.69
2023-09-17T07:54:41.692Z,100447.06
2023-09-17T07:57:14.958Z,100455.38
2023-09-17T07:59:49.762Z,100451.25
2023-09-17T08:02:22.865Z,100456.41
2023-09-17T08:04:55.960Z,100453.56
2023-09-17T08:07:31.257Z,100455.22
2023-09-17T08:10:07.851Z,100452.03
2023-09-17T08:12:40.827Z,100457.59
2023-09-17T08:15:18.432Z,100453.84
2023-09-17T08:17:53.101Z,100462.06
2023-09-17T08:20:27.435Z,100460.19
2023-09-17T08:23:01.758Z,100458.34
2023-09-17T08:25:38.163Z,100458.75
2023-09-17T08:28:14.650Z,100455.34
2023-09-17T08:30:48.841Z,100457.75
2023-09-17T08:33:22.001Z,100459.69
2023-09-17T08:35:56.508Z,100452.41
2023-09-17T08:38:31.756Z,100461.31
2023-09-17T08:41:09.697Z,100464.44
2023-09-17T08:43:44.842Z,100453.06
2023-09-17T08:46:18.341Z,100462.88
2023-09-17T08:48:52.346Z,100458.97
2023-09-17T08:51:28.652Z,100458.59
2023-09-17T08:54:08.479Z,100458.88
2023-09-17T08:56:45.509Z,100447.91
2023-09-17T08:59:26.168Z,100447.44
2023-09-17T09:02:05.041Z,100446.56
2023-09-17T09:04:39.158Z,100444.09
2023-09-17T09:07:13.071Z,100450.41
2023-09-17T09:09:47.470Z,100432.56
2023-09-17T09:12:22.930Z,100435.50
2023-09-17T09:14:57.269Z,100434.75
2023-09-17T09:17:30.779Z,100426.41
2023-09-17T09:20:05.133Z,100421.19
2023-09-17T09:22:38.608Z,100431.19
2023-09-17T09:25:14.672Z,100420.13
2023-09-17T09:27:49.328Z,100427.94
2023-09-17T09:30:22.325Z,100429.53
2023-09-17T09:32:58.707Z,100439.53
2023-09-17T09:35:32.626Z,100433.53
2023-09-17T09:38:08.698Z,100430.69
2023-09-17T09:40:43.619Z,100438.16
2023-09-17T09:43:34.218Z,100429.84
2023-09-17T09:46:07.730Z,100422.25
2023-09-17T09:48:42.594Z,100424.59
2023-09-17T09:51:19.637Z,100424.81
2023-09-17T09:53:57.171Z,100427.75
2023-09-17T09:56:30.546Z,100423.31
2023-09-17T09:59:07.063Z,100413.63
2023-09-17T10:01:40.680Z,100422.31
2023-09-17T10:04:14.047Z,100411.41
2023-09-17T10:06:50.270Z,100406.66
2023-09-17T10:09:25.662Z,100404.78
2023-09-17T10:11:59.805Z,100414.06
2023-09-17T10:14:39.803Z,100413.50
2023-09-17T10:17:15.921Z,100411.06
2023-09-17T10:19:50.076Z,100409.41
2023-09-17T10:22:25.181Z,100403.38
2023-09-17T10:24:58.491Z,100405.53
2023-09-17T10:27:41.194Z,100399.69
2023-09-17T10:30:19.355Z,100396.94
2023-09-17T10:32:53.318Z,100408.09
2023-09-17T10:35:26.817Z,100406.63
2023-09-17T10:38:06.976Z,100400.13
2023-09-17T10:40:41.130Z,100411.31
2023-09-17T10:43:17.612Z,100404.53
2023-09-17T10:46:01.310Z,100413.53
2023-09-17T10:48:42.176Z,100410.56
2023-09-17T10:51:17.868Z,100402.72
2023-09-17T10:53:55.109Z,100403.66
2023-09-17T10:56:28.356Z,100399.34
2023-09-17T10:59:02.258Z,100401.50
2023-09-17T11:01:42.568Z,100396.25
2023-09-17T11:04:18.012Z,100394.06
2023-09-17T11:06:53.349Z,100398.75
2023-09-17T11:09:26.693Z,100393.94
2023-09-17T11:11:59.728Z,100394.66
2023-09-17T11:14:32.810Z,100399.25
2023-09-17T11:17:10.344Z,100405.25
2023-09-17T11:19:46.681Z,100391.84
2023-09-17T11:22:20.847Z,100381.25
2023-09-17T11:24:54.187Z,100384.19
2023-09-17T11:27:46.170Z,100374.75
2023-09-17T11:30:19.948Z,100369.94
2023-09-17T11:32:55.780Z,100366.84
2023-09-17T11:35:29.000Z,100368.50
2023-09-17T11:38:02.052Z,100371.47
2023-09-17T11:40:35.118Z,100364.63
2023-09-17T11:43:08.209Z,100376.09
2023-09-17T11:45:41.237Z,100377.69
2023-09-17T11:48:15.866Z,100375.59
2023-09-17T11:50:49.075Z,100383.59
2023-09-17T11:53:22.248Z,100371.94
2023-09-17T11:55:55.313Z,100375.41
2023-09-17T11:58:33.408Z,100383.81
2023-09-17T12:01:11.338Z,100368.72
2023-09-17T12:03:47.232Z,100373.78
2023-09-17T12:06:21.859Z,100371.69
2023-09-17T12:08:57.700Z,100373.31
2023-09-17T12:11:31.753Z,100369.94
2023-09-17T12:14:07.922Z,100368.81
2023-09-17T12:16:41.625Z,100368.91
2023-09-17T12:19:18.690Z,100369.69
2023-09-17T12:22:01.632Z,100367.66
2023-09-17T12:24:38.989Z,100367.31
2023-09-17T12:27:25.755Z,100366.88
2023-09-17T12:29:58.886Z,100356.91
2023-09-17T12:32:34.421Z,100354.84
2023-09-17T12:35:10.332Z,100362.97
2023-09-17T12:37:43.337Z,100355.81
2023-09-17T12:40:16.754Z,100356.00
2023-09-17T12:42:49.682Z,100355.44
2023-09-17T12:45:24.602Z,100346.31
2023-09-17T12:47:57.809Z,100346.38
2023-09-17T12:50:32.453Z,100349.97
2023-09-17T12:53:06.106Z,100349.72
2023-09-17T12:55:39.245Z,100352.81
2023-09-17T12:58:13.181Z,100341.28
2023-09-17T13:00:46.224Z,100351.00
2023-09-17T13:03:19.559Z,100345.13
2023-09-17T13:05:59.306Z,100345.47
2023-09-17T13:08:32.459Z,100351.28
2023-09-17T13:11:05.576Z,100354.34
2023-09-17T13:13:38.698Z,100342.34
2023-09-17T13:16:11.793Z,100346.09
2023-09-17T13:18:48.033Z,100345.84
2023-09-17T13:21:22.888Z,100347.31
2023-09-17T13:23:56.021Z,100342.00
2023-09-17T13:26:29.078Z,100337.34
2023-09-17T13:29:04.772Z,100344.75
2023-09-17T13:31:38.407Z,100343.88
2023-09-17T13:34:11.645Z,100343.81
2023-09-17T13:36:46.038Z,100342.94
2023-09-17T13:39:18.995Z,100339.50
2023-09-17T13:41:54.296Z,100344.06
2023-09-17T13:44:27.235Z,100345.97
2023-09-17T13:47:00.591Z,100349.81
2023-09-17T13:49:33.569Z,100345.84
2023-09-17T13:52:08.323Z,100338.97
2023-09-17T13:54:43.430Z,100349.75
2023-09-17T13:57:17.030Z,100349.59
2023-09-17T13:59:49.965Z,100359.56
2023-09-17T14:02:23.178Z,100338.13
2023-09-17T14:04:56.157Z,100338.03
2023-09-17T14:07:30.519Z,100338.06
2023-09-17T14:10:03.447Z,100334.13
2023-09-17T14:12:36.148Z,100328.09
2023-09-17T14:15:12.089Z,100330.25
2023-09-17T14:17:45.224Z,100332.50
2023-09-17T14:20:18.377Z,100334.28
2023-09-17T14:22:53.812Z,100319.59
2023-09-17T14:25:28.684Z,100335.50
2023-09-17T14:28:01.844Z,100331.59
2023-09-17T14:30:35.335Z,100331.78
2023-09-17T14:33:12.449Z,100330.44
2023-09-17T14:35:48.032Z,100334.41
2023-09-17T14:38:22.106Z,100331.59
2023-09-17T14:40:55.084Z,100335.75
2023-09-17T14:43:27.855Z,100329.34
2023-09-17T14:46:00.739Z,100338.31
2023-09-17T14:48:33.440Z,100341.81
2023-09-17T14:51:06.352Z,100341.63
2023-09-17T14:53:41.500Z,100323.91
2023-09-17T14:56:14.481Z,100336.56
2023-09-17T14:58:47.534Z,100343.97
2023-09-17T15:01:40.468Z,100339.38
2023-09-17T15:04:13.891Z,100339.09
2023-09-17T15:06:47.042Z,100335.03
2023-09-17T15:09:21.656Z,100343.97
2023-09-17T15:11:54.954Z,100340.53
2023-09-17T15:14:27.930Z,100340.25
2023-09-17T15:17:01.294Z,100343.81
2023-09-17T15:19:34.066Z,100347.91
2023-09-17T15:22:10.992Z,100348.47
2023-09-17T15:24:45.932Z,100362.34
2023-09-17T15:27:18.854Z,100351.22
2023-09-17T15:29:52.023Z,100336.88
2023-09-17T15:32:25.028Z,100347.91
2023-09-17T15:34:57.845Z,100346.47
2023-09-17T15:37:30.802Z,100345.84
2023-09-17T15:40:07.028Z,100347.31
2023-09-17T15:42:40.082Z,100347.75
2023-09-17T15:45:13.083Z,100350.00
2023-09-17T15:47:45.793Z,100343.44
2023-09-17T15:50:18.890Z,100349.53
2023-09-17T15:52:51.982Z,100352.28
2023-09-17T15:55:26.169Z,100334.94
2023-09-17T15:57:59.584Z,100339.88
2023-09-17T16:00:32.898Z,100341.94
2023-09-17T16:03:06.060Z,100347.44
2023-09-17T16:05:39.193Z,100346.66
2023-09-17T16:08:12.197Z,100353.47
2023-09-17T16:10:46.624Z,100341.03
2023-09-17T16:13:19.746Z,100350.31
2023-09-17T16:15:52.884Z,100346.59
2023-09-17T16:18:25.778Z,100353.78
2023-09-17T16:20:58.863Z,100345.38
2023-09-17T16:23:31.738Z,100351.03
2023-09-17T16:26:06.384Z,100354.66
2023-09-17T16:28:39.717Z,100360.16
2023-09-17T16:31:12.850Z,100351.78
2023-09-17T16:33:45.707Z,100352.09
2023-09-17T16:36:18.743Z,100352.97
2023-09-17T16:38:51.580Z,100349.22
2023-09-17T16:41:26.187Z,100351.09
2023-09-17T16:43:59.082Z,100357.28
2023-09-17T16:46:32.083Z,100355.06
2023-09-17T16:49:04.822Z,100358.81
2023-09-17T16:51:43.736Z,100348.56
2023-09-17T16:54:17.041Z,100356.59
2023-09-17T16:56:51.462Z,100357.06
2023-09-17T16:59:27.005Z,100362.88
2023-09-17T17:02:01.249Z,100363.38
2023-09-17T17:04:34.370Z,100359.28
2023-09-17T17:07:07.312Z,100363.53
2023-09-17T17:09:40.390Z,100359.78
2023-09-17T17:12:17.434Z,100360.31
2023-09-17T17:14:50.956Z,100366.94
2023-09-17T17:17:24.019Z,100364.34
2023-09-17T17:19:58.620Z,100376.13
2023-09-17T17:22:43.301Z,100371.41
2023-09-17T17:25:16.831Z,100370.72
2023-09-17T17:27:52.496Z,100372.38
2023-09-17T17:30:27.564Z,100377.81
2023-09-17T17:33:00.630Z,100383.06
2023-09-17T17:35:33.625Z,100375.53
2023-09-17T17:38:06.734Z,100386.94
2023-09-17T17:40:39.551Z,100381.00
2023-09-17T17:43:14.025Z,100374.56
2023-09-17T17:45:47.166Z,100374.38
2023-09-17T17:48:19.990Z,100380.03
2023-09-17T17:50:53.612Z,100380.75
2023-09-17T17:53:27.945Z,100383.13
2023-09-17T17:56:01.050Z,100376.44
2023-09-17T17:58:36.810Z,100371.47
2023-09-17T18:01:09.798Z,100376.50
2023-09-17T18:03:42.991Z,100369.00
2023-09-17T18:06:17.366Z,100367.47
2023-09-17T18:08:50.500Z,100379.13
2023-09-17T18:11:23.616Z,100370.56
2023-09-17T18:13:57.882Z,100374.50
2023-09-17T18:16:30.918Z,100376.41
2023-09-17T18:19:04.064Z,100377.19
2023-09-17T18:21:36.857Z,100372.28
2023-09-17T18:24:09.822Z,100382.84
2023-09-17T18:26:42.978Z,100380.06
2023-09-17T18:29:17.350Z,100384.25
2023-09-17T18:31:53.193Z,100387.28
2023-09-17T18:34:30.606Z,100382.44
2023-09-17T18:37:03.784Z,100400.13
2023-09-17T18:39:36.653Z,100394.59
2023-09-17T18:42:09.879Z,100400.28
2023-09-17T18:44:44.341Z,100399.16
2023-09-17T18:47:17.543Z,100395.03
2023-09-17T18:49:53.244Z,100397.22
2023-09-17T18:52:28.329Z,100401.25
2023-09-17T18:55:02.537Z,100401.53
2023-09-17T18:57:40.852Z,100406.44
2023-09-17T19:00:17.357Z,100400.59
2023-09-17T19:02:50.371Z,100401.91
2023-09-17T19:05:23.586Z,100405.91
2023-09-17T19:07:56.465Z,100403.31
2023-09-17T19:10:29.544Z,100410.13
2023-09-17T19:13:04.930Z,100414.25
2023-09-17T19:15:45.212Z,100408.41
2023-09-17T19:18:21.070Z,100410.88
2023-09-17T19:21:08.147Z,100406.56
2023-09-17T19:23:46.645Z,100408.19
2023-09-17T19:26:21.110Z,100415.94
2023-09-17T19:28:54.121Z,100409.75
2023-09-17T19:31:30.103Z,100406.34
2023-09-17T19:34:05.094Z,100397.63
2023-09-17T19:36:38.624Z,100400.50
2023-09-17T19:39:12.790Z,100395.19
2023-09-17T19:41:45.987Z,100399.91
2023-09-17T19:44:19.088Z,100394.78
2023-09-17T19:46:56.397Z,100388.56
2023-09-17T19:49:33.150Z,100391.47
2023-09-17T19:52:06.583Z,100392.66
2023-09-17T19:54:44.861Z,100397.50
2023-09-17T19:57:17.810Z,100393.22
2023-09-17T19:59:50.716Z,100392.53
2023-09-17T20:02:25.304Z,100388.22
2023-09-17T20:04:58.414Z,100393.94
2023-09-17T20:07:33.557Z,100392.38
2023-09-17T20:10:15.647Z,100384.63
2023-09-17T20:12:48.997Z,100387.78
2023-09-17T20:15:24.349Z,100388.09
2023-09-17T20:17:59.417Z,100390.34
2023-09-17T20:20:33.268Z,100386.38
2023-09-17T20:23:06.430Z,100385.94
2023-09-17T20:25:39.358Z,100381.78
2023-09-17T20:28:14.694Z,100380.19
2023-09-17T20:30:52.063Z,100378.78
2023-09-17T20:33:26.505Z,100378.94
2023-09-17T20:35:59.514Z,100376.50
2023-09-17T20:38:32.472Z,100382.22
2023-09-17T20:41:06.267Z,100376.91
2023-09-17T20:43:39.280Z,100378.94
2023-09-17T20:46:12.272Z,100373.78
2023-09-17T20:48:46.719Z,100374.78
2023-09-17T20:51:19.612Z,100376.78
2023-09-17T20:53:52.893Z,100370.78
2023-09-17T20:56:26.824Z,100374.47
2023-09-17T20:59:00.147Z,100372.06
2023-09-17T21:01:33.412Z,100370.59
2023-09-17T21:04:08.827Z,100372.59
2023-09-17T21:06:42.182Z,100371.06
2023-09-17T21:09:25.931Z,100369.19
2023-09-17T21:11:58.883Z,100374.19
2023-09-17T21:14:31.887Z,100373.44
2023-09-17T21:17:05.248Z,100371.91
2023-09-17T21:19:39.702Z,100371.19
2023-09-17T21:22:12.698Z,100372.19
2023-09-17T21:24:46.115Z,100366.28
2023-09-17T21:27:19.041Z,100369.13
2023-09-17T21:29:51.970Z,100372.97
2023-09-17T21:32:25.077Z,100364.13
2023-09-17T21:34:59.442Z,100362.53
2023-09-17T21:37:32.502Z,100362.81
2023-09-17T21:40:06.168Z,100363.81
2023-09-17T21:42:39.226Z,100361.38
2023-09-17T21:45:13.329Z,100352.50
2023-09-17T21:47:46.477Z,100354.50
2023-09-17T21:50:20.882Z,100348.34
2023-09-17T21:52:53.866Z,100359.34
2023-09-17T21:55:27.055Z,100353.22
2023-09-17T21:58:00.048Z,100354.47
2023-09-17T22:00:32.969Z,100355.75
2023-09-17T22:03:06.085Z,100363.44
2023-09-17T22:05:43.602Z,100358.44
2023-09-17T22:08:18.400Z,100359.72
2023-09-17T22:10:51.542Z,100365.56
2023-09-17T22:13:24.854Z,100354.25
2023-09-17T22:15:57.808Z,100355.38
2023-09-17T22:18:31.047Z,100355.78
2023-09-17T22:21:10.700Z,100352.50
2023-09-17T22:23:43.735Z,100352.91
2023-09-17T22:26:16.827Z,100351.28
2023-09-17T22:28:50.970Z,100348.84
2023-09-17T22:31:24.234Z,100361.72
2023-09-17T22:33:57.364Z,100360.22
2023-09-17T22:36:32.034Z,100356.06
2023-09-17T22:39:05.994Z,100362.75
2023-09-17T22:41:38.920Z,100361.31
2023-09-17T22:44:23.840Z,100364.28
2023-09-17T22:46:57.887Z,100361.00
2023-09-17T22:49:31.402Z,100359.38
2023-09-17T22:52:06.458Z,100358.69
2023-09-17T22:54:39.373Z,100367.66
2023-09-17T22:57:12.292Z,100355.09
2023-09-17T22:59:45.394Z,100352.50
2023-09-17T23:02:18.588Z,100360.78
2023-09-17T23:04:51.586Z,100349.06
2023-09-17T23:07:25.936Z,100349.19
2023-09-17T23:09:58.918Z,100347.34
2023-09-17T23:12:31.807Z,100348.09
2023-09-17T23:15:05.224Z,100338.94
2023-09-17T23:17:40.684Z,100341.56
2023-09-17T23:20:14.185Z,100340.81
2023-09-17T23:22:48.292Z,100337.16
2023-09-17T23:25:22.925Z,100339.88
2023-09-17T23:27:55.858Z,100326.66
2023-09-17T23:30:28.952Z,100329.63
2023-09-17T23:33:01.988Z,100334.47
2023-09-17T23:35:35.055Z,100333.84
2023-09-17T23:38:10.352Z,100333.13
2023-09-17T23:40:43.520Z,100333.41
2023-09-17T23:43:16.583Z,100327.25
2023-09-17T23:45:49.582Z,100323.97
2023-09-17T23:48:22.850Z,100323.34
2023-09-17T23:50:56.129Z,100323.59
2023-09-17T23:53:30.735Z,100330.75
2023-09-17T23:56:04.015Z,100323.88
2023-09-17T23:58:37.009Z,100329.28
